Time;durP1;ratioP1;P1;durP2;ratioP2;P2;SDS_P1;SDS_P2;PMS_P1;PMS_P2;Temp;Humidity;BMP_temperature;BMP_pressure;BME280_temperature;BME280_humidity;BME280_pressure;Samples;Min_cycle;Max_cycle;Signal;HPM_P1;HPM_P2
2022/09/01 00:01:19;;;;;;;2.23;1.90;;;;;;;;;;6205760;23;20360;-92
2022/09/01 00:03:47;;;;;;;2.83;2.58;;;;;;;;;;6186244;23;20363;-94
2022/09/01 00:06:13;;;;;;;3.60;1.90;;;;;;;;;;6187677;23;20387;-93
2022/09/01 00:08:39;;;;;;;2.92;1.60;;;;;;;;;;6211129;23;20403;-93
2022/09/01 00:11:10;;;;;;;2.00;1.90;;;;;;;;;;6234538;23;20347;-95
2022/09/01 00:13:41;;;;;;;2.30;2.20;;;;;;;;;;6239700;23;20371;-95
2022/09/01 00:16:30;;;;;;;1.63;1.63;;;;;;;;;;6239379;22;20402;-95
2022/09/01 00:19:00;;;;;;;2.03;1.92;;;;;;;;;;6214570;22;20340;-96
2022/09/01 00:26:41;;;;;;;2.88;2.17;;;;;;;;;;6298698;22;20389;-90
2022/09/01 00:29:10;;;;;;;2.17;2.00;;;;;;;;;;6290136;22;20355;-91
2022/09/01 00:31:36;;;;;;;2.00;1.80;;;;;;;;;;6258214;22;20413;-90
2022/09/01 00:34:02;;;;;;;3.57;3.37;;;;;;;;;;6255485;22;20442;-90
2022/09/01 00:36:28;;;;;;;1.80;1.80;;;;;;;;;;6253216;22;20450;-90
2022/09/01 00:38:55;;;;;;;1.90;1.80;;;;;;;;;;6253831;22;20468;-90
2022/09/01 00:41:23;;;;;;;2.80;1.80;;;;;;;;;;6259530;22;20407;-91
2022/09/01 00:43:51;;;;;;;1.92;1.90;;;;;;;;;;6257220;22;20364;-90
2022/09/01 00:46:22;;;;;;;1.75;1.75;;;;;;;;;;6252816;22;20362;-91
2022/09/01 00:48:51;;;;;;;1.80;1.70;;;;;;;;;;6258532;22;20377;-90
2022/09/01 00:51:18;;;;;;;2.45;2.20;;;;;;;;;;6218714;23;20416;-91
2022/09/01 00:53:44;;;;;;;1.80;1.70;;;;;;;;;;6241976;23;20377;-91
2022/09/01 00:56:11;;;;;;;2.40;2.30;;;;;;;;;;6217008;23;20479;-90
2022/09/01 00:58:37;;;;;;;2.58;2.20;;;;;;;;;;6215498;23;20378;-90
2022/09/01 01:01:09;;;;;;;2.00;2.00;;;;;;;;;;6213484;23;20446;-91
2022/09/01 01:03:38;;;;;;;2.00;1.90;;;;;;;;;;6215314;23;20898;-91
2022/09/01 01:06:07;;;;;;;3.83;3.63;;;;;;;;;;6218163;23;20400;-91
2022/09/01 01:08:34;;;;;;;3.50;3.30;;;;;;;;;;6217166;23;20361;-91
2022/09/01 01:11:01;;;;;;;3.50;2.50;;;;;;;;;;6218301;23;20838;-90
2022/09/01 01:13:31;;;;;;;2.65;2.30;;;;;;;;;;6218960;23;20718;-91
2022/09/01 01:15:58;;;;;;;2.30;2.00;;;;;;;;;;6215747;23;20362;-91
2022/09/01 01:18:25;;;;;;;4.35;3.03;;;;;;;;;;6219902;23;20453;-91
2022/09/01 01:23:55;;;;;;;3.22;2.92;;;;;;;;;;6250359;23;20383;-91
2022/09/01 01:26:22;;;;;;;1.90;1.80;;;;;;;;;;6218546;23;20402;-90
2022/09/01 01:28:48;;;;;;;1.80;1.70;;;;;;;;;;6217472;23;20365;-90
2022/09/01 01:31:17;;;;;;;2.05;1.92;;;;;;;;;;6217912;23;20370;-91
2022/09/01 01:33:47;;;;;;;2.30;2.10;;;;;;;;;;6217600;23;20393;-91
2022/09/01 01:36:16;;;;;;;2.10;2.00;;;;;;;;;;6220630;23;20413;-90
2022/09/01 01:38:45;;;;;;;2.10;1.90;;;;;;;;;;6217265;23;20823;-90
2022/09/01 01:41:12;;;;;;;2.55;2.35;;;;;;;;;;6217654;23;20423;-90
2022/09/01 01:43:38;;;;;;;2.20;2.20;;;;;;;;;;6217553;23;20660;-89
2022/09/01 01:46:07;;;;;;;2.40;1.88;;;;;;;;;;6217831;23;20368;-90
2022/09/01 01:48:35;;;;;;;2.40;2.30;;;;;;;;;;6223041;23;20366;-89
2022/09/01 01:51:01;;;;;;;2.50;2.30;;;;;;;;;;6231006;23;20365;-89
2022/09/01 01:53:28;;;;;;;2.53;2.33;;;;;;;;;;6221339;23;20381;-89
2022/09/01 01:55:57;;;;;;;3.10;2.40;;;;;;;;;;6220024;23;20850;-89
2022/09/01 01:58:24;;;;;;;2.40;2.30;;;;;;;;;;6220516;23;20389;-90
2022/09/01 02:00:51;;;;;;;2.45;2.35;;;;;;;;;;6240281;23;20381;-89
2022/09/01 02:03:20;;;;;;;2.10;2.00;;;;;;;;;;6246127;23;20375;-89
2022/09/01 02:05:50;;;;;;;2.20;2.20;;;;;;;;;;6244436;23;20346;-90
2022/09/01 02:08:20;;;;;;;2.38;2.28;;;;;;;;;;6218064;23;20415;-88
2022/09/01 02:10:48;;;;;;;2.30;2.20;;;;;;;;;;6217072;23;20389;-89
2022/09/01 02:13:17;;;;;;;2.35;2.20;;;;;;;;;;6215326;23;20378;-90
2022/09/01 02:15:46;;;;;;;2.35;2.25;;;;;;;;;;6214247;23;20366;-90
2022/09/01 02:18:15;;;;;;;2.00;2.00;;;;;;;;;;6218001;23;20433;-89
2022/09/01 02:20:42;;;;;;;2.10;2.10;;;;;;;;;;6214732;23;20370;-91
2022/09/01 02:23:10;;;;;;;2.20;2.10;;;;;;;;;;6216880;23;20768;-90
2022/09/01 02:25:38;;;;;;;2.70;2.50;;;;;;;;;;6215779;23;20385;-91
2022/09/01 02:28:08;;;;;;;2.60;2.40;;;;;;;;;;6217763;23;20380;-90
2022/09/01 02:30:40;;;;;;;2.20;2.10;;;;;;;;;;6245329;23;20354;-90
2022/09/01 02:33:09;;;;;;;2.45;2.45;;;;;;;;;;6219208;23;20405;-90
2022/09/01 02:35:38;;;;;;;3.83;2.90;;;;;;;;;;6217684;23;20687;-91
2022/09/01 02:38:05;;;;;;;2.65;2.55;;;;;;;;;;6218802;23;20381;-90
2022/09/01 02:40:31;;;;;;;2.75;2.75;;;;;;;;;;6218011;23;20354;-89
2022/09/01 02:42:58;;;;;;;2.20;2.10;;;;;;;;;;6215998;23;20412;-91
2022/09/01 02:45:25;;;;;;;2.30;2.20;;;;;;;;;;6218233;23;20425;-91
2022/09/01 02:47:52;;;;;;;3.07;2.70;;;;;;;;;;6222481;22;20453;-90
2022/09/01 02:50:32;;;;;;;2.63;2.58;;;;;;;;;;6221805;23;20719;-91
2022/09/01 02:52:59;;;;;;;2.50;2.40;;;;;;;;;;6230333;23;20374;-90
2022/09/01 02:55:29;;;;;;;3.30;2.70;;;;;;;;;;6222536;23;20699;-90
2022/09/01 02:58:02;;;;;;;3.70;3.40;;;;;;;;;;6222068;23;20681;-91
2022/09/01 03:00:32;;;;;;;2.65;2.45;;;;;;;;;;6218899;23;20368;-89
2022/09/01 03:03:00;;;;;;;2.40;2.40;;;;;;;;;;6226848;23;20361;-90
2022/09/01 03:05:31;;;;;;;2.40;2.40;;;;;;;;;;6229578;23;20361;-90
2022/09/01 03:08:00;;;;;;;2.55;2.50;;;;;;;;;;6232893;23;20381;-90
2022/09/01 03:10:31;;;;;;;2.80;2.60;;;;;;;;;;6236570;23;20441;-91
2022/09/01 03:13:09;;;;;;;2.50;2.40;;;;;;;;;;6242531;23;20432;-91
2022/09/01 03:15:36;;;;;;;3.50;2.58;;;;;;;;;;6242894;23;20374;-91
2022/09/01 03:18:09;;;;;;;3.10;2.90;;;;;;;;;;6226348;23;20369;-90
2022/09/01 03:20:38;;;;;;;2.65;2.50;;;;;;;;;;6222913;23;20369;-91
2022/09/01 03:23:14;;;;;;;2.40;2.30;;;;;;;;;;6223341;23;20836;-90
2022/09/01 03:25:46;;;;;;;2.60;2.50;;;;;;;;;;6222173;23;20904;-89
2022/09/01 03:28:15;;;;;;;2.40;2.20;;;;;;;;;;6220413;23;20384;-90
2022/09/01 03:30:49;;;;;;;2.60;2.60;;;;;;;;;;6217821;23;20369;-91
2022/09/01 03:33:15;;;;;;;2.53;2.42;;;;;;;;;;6219117;23;20574;-90
2022/09/01 03:35:42;;;;;;;3.80;2.70;;;;;;;;;;6218242;23;20362;-90
2022/09/01 03:38:12;;;;;;;2.35;2.30;;;;;;;;;;6219378;23;20437;-89
2022/09/01 03:40:42;;;;;;;2.50;2.40;;;;;;;;;;6216626;23;20437;-90
2022/09/01 03:43:22;;;;;;;3.80;2.80;;;;;;;;;;6220094;23;20373;-90
2022/09/01 03:45:51;;;;;;;2.30;2.30;;;;;;;;;;6247184;23;20354;-89
2022/09/01 03:48:19;;;;;;;2.70;2.50;;;;;;;;;;6219336;23;20369;-89
2022/09/01 03:50:46;;;;;;;2.80;2.50;;;;;;;;;;6219019;23;20394;-90
2022/09/01 03:53:19;;;;;;;2.35;2.35;;;;;;;;;;6214795;23;20413;-89
2022/09/01 03:55:48;;;;;;;2.70;2.50;;;;;;;;;;6214035;23;21188;-90
2022/09/01 03:58:17;;;;;;;2.25;2.25;;;;;;;;;;6216921;23;20397;-89
2022/09/01 04:00:44;;;;;;;4.13;2.58;;;;;;;;;;6209370;23;20358;-90
2022/09/01 04:03:12;;;;;;;2.60;2.50;;;;;;;;;;6216638;23;20404;-90
2022/09/01 04:05:41;;;;;;;2.80;2.10;;;;;;;;;;6216452;23;20366;-89
2022/09/01 04:08:10;;;;;;;3.10;2.90;;;;;;;;;;6217241;23;20373;-89
2022/09/01 04:10:50;;;;;;;3.08;2.97;;;;;;;;;;6215634;23;20419;-90
2022/09/01 04:13:31;;;;;;;2.70;2.60;;;;;;;;;;6217158;23;20436;-90
2022/09/01 04:15:57;;;;;;;2.55;2.35;;;;;;;;;;6221553;23;20385;-90
2022/09/01 04:20:59;;;;;;;2.70;2.55;;;;;;;;;;6217426;23;20407;-90
2022/09/01 04:23:42;;;;;;;;;;;;;;;;;;;;;
2022/09/01 04:26:13;;;;;;;2.80;2.70;;;;;;;;;;6220445;23;20379;-89
2022/09/01 04:29:01;;;;;;;3.40;2.97;;;;;;;;;;6195191;23;20414;-90
2022/09/01 04:31:30;;;;;;;3.63;3.25;;;;;;;;;;6171882;23;20378;-91
2022/09/01 04:33:58;;;;;;;3.30;3.20;;;;;;;;;;6228301;22;20396;-90
2022/09/01 04:36:35;;;;;;;3.10;2.97;;;;;;;;;;6274180;22;20745;-91
2022/09/01 04:39:11;;;;;;;2.95;2.85;;;;;;;;;;6286717;22;20354;-90
2022/09/01 04:42:08;;;;;;;2.80;2.70;;;;;;;;;;6278134;22;20399;-90
2022/09/01 04:44:34;;;;;;;3.50;3.40;;;;;;;;;;6252931;22;20368;-89
2022/09/01 04:47:00;;;;;;;3.00;2.80;;;;;;;;;;6255436;22;20368;-91
2022/09/01 04:49:56;;;;;;;3.22;3.03;;;;;;;;;;6257008;22;20394;-90
2022/09/01 04:52:23;;;;;;;3.10;3.00;;;;;;;;;;6237591;22;20376;-91
2022/09/01 04:54:49;;;;;;;3.80;3.50;;;;;;;;;;6264347;22;20368;-90
2022/09/01 04:57:15;;;;;;;3.45;3.35;;;;;;;;;;6266074;22;20368;-90
2022/09/01 04:59:50;;;;;;;3.20;3.00;;;;;;;;;;6253836;22;20375;-90
2022/09/01 05:02:16;;;;;;;2.97;2.97;;;;;;;;;;6246898;22;20424;-89
2022/09/01 05:04:45;;;;;;;7.07;3.50;;;;;;;;;;6251776;22;20353;-91
2022/09/01 05:09:58;;;;;;;8.25;3.88;;;;;;;;;;6267943;22;20432;-90
2022/09/01 05:12:34;;;;;;;4.20;3.90;;;;;;;;;;6254937;22;20451;-90
2022/09/01 05:15:09;;;;;;;3.55;3.35;;;;;;;;;;6253980;22;20851;-91
2022/09/01 05:17:55;;;;;;;3.60;3.50;;;;;;;;;;6261310;22;20371;-89
2022/09/01 05:23:12;;;;;;;3.92;3.53;;;;;;;;;;6260249;22;20352;-88
2022/09/01 05:28:17;;;;;;;3.67;3.40;;;;;;;;;;6252571;22;20417;-89
2022/09/01 05:34:42;;;;;;;;;;;;;;;;;;;;;
2022/09/01 05:37:12;;;;;;;3.63;3.40;;;;;;;;;;6137930;23;20377;-90
2022/09/01 05:39:43;;;;;;;3.80;3.50;;;;;;;;;;6112628;23;20397;-87
2022/09/01 05:42:17;;;;;;;4.20;4.00;;;;;;;;;;6107120;23;20392;-90
2022/09/01 05:45:05;;;;;;;4.05;3.65;;;;;;;;;;6217800;22;20363;-91
2022/09/01 05:47:36;;;;;;;3.80;3.60;;;;;;;;;;6260410;22;20400;-88
2022/09/01 05:50:07;;;;;;;6.85;3.90;;;;;;;;;;6250123;23;20426;-90
2022/09/01 05:52:36;;;;;;;3.80;3.42;;;;;;;;;;6248175;23;20397;-90
2022/09/01 05:55:02;;;;;;;5.30;4.00;;;;;;;;;;6248885;23;20385;-90
2022/09/01 05:57:33;;;;;;;4.00;3.70;;;;;;;;;;6250263;23;20806;-90
2022/09/01 06:00:21;;;;;;;4.40;4.00;;;;;;;;;;6211530;23;20367;-92
2022/09/01 06:02:47;;;;;;;8.63;4.10;;;;;;;;;;6245414;23;20496;-90
2022/09/01 06:05:14;;;;;;;3.67;3.47;;;;;;;;;;6245045;23;20369;-88
2022/09/01 06:07:43;;;;;;;3.60;3.30;;;;;;;;;;6244107;23;20354;-90
2022/09/01 06:10:31;;;;;;;3.88;3.65;;;;;;;;;;6245791;23;20373;-91
2022/09/01 06:13:01;;;;;;;4.03;3.30;;;;;;;;;;6258669;23;20427;-90
2022/09/01 06:15:29;;;;;;;3.38;3.08;;;;;;;;;;6255178;23;20442;-91
2022/09/01 06:18:26;;;;;;;3.25;3.05;;;;;;;;;;6257314;23;20845;-91
2022/09/01 06:21:11;;;;;;;3.35;3.05;;;;;;;;;;6203907;23;20732;-91
2022/09/01 06:26:50;;;;;;;3.17;3.07;;;;;;;;;;6271924;22;20455;-94
2022/09/01 06:29:20;;;;;;;3.23;3.03;;;;;;;;;;6227901;22;20448;-91
2022/09/01 06:34:59;;;;;;;7.15;5.57;;;;;;;;;;6266860;22;20486;-92
2022/09/01 06:37:31;;;;;;;3.90;3.38;;;;;;;;;;6314774;22;20370;-92
2022/09/01 06:40:09;;;;;;;3.38;3.17;;;;;;;;;;6287921;22;20363;-92
2022/09/01 06:43:01;;;;;;;3.03;2.90;;;;;;;;;;6311846;22;20392;-94
2022/09/01 06:45:30;;;;;;;4.50;3.07;;;;;;;;;;6315933;22;20475;-95
2022/09/01 06:48:14;;;;;;;3.88;3.72;;;;;;;;;;6282325;22;20364;-95
2022/09/01 06:53:17;;;;;;;4.10;3.30;;;;;;;;;;6269112;22;20387;-90
2022/09/01 07:22:19;;;;;;;4.45;2.70;;;;;;;;;;6314638;22;20449;-93
2022/09/01 07:25:13;;;;;;;3.13;3.03;;;;;;;;;;6297981;22;20379;-91
2022/09/01 07:27:53;;;;;;;3.00;2.67;;;;;;;;;;6288716;22;20374;-91
2022/09/01 07:30:20;;;;;;;3.00;2.30;;;;;;;;;;6290582;22;20362;-94
2022/09/01 07:32:47;;;;;;;2.97;2.58;;;;;;;;;;6323023;22;20457;-87
2022/09/01 07:35:17;;;;;;;2.40;2.20;;;;;;;;;;6322704;22;20430;-90
2022/09/01 07:37:49;;;;;;;2.13;2.03;;;;;;;;;;6318556;22;20354;-89
2022/09/01 07:40:27;;;;;;;2.60;2.30;;;;;;;;;;6287430;22;20789;-94
2022/09/01 07:43:10;;;;;;;2.30;2.10;;;;;;;;;;6286930;22;20390;-94
2022/09/01 07:45:36;;;;;;;2.42;2.22;;;;;;;;;;6287074;22;20370;-94
2022/09/01 07:48:05;;;;;;;2.10;2.10;;;;;;;;;;6294387;22;20364;-91
2022/09/01 07:51:05;;;;;;;;;;;;;;;;;;;;;
2022/09/01 07:53:44;;;;;;;2.65;2.10;;;;;;;;;;6288689;22;20387;-94
2022/09/01 07:56:11;;;;;;;2.58;2.42;;;;;;;;;;6288861;22;20364;-93
2022/09/01 07:58:43;;;;;;;2.00;1.90;;;;;;;;;;6262753;22;20920;-86
2022/09/01 08:01:17;;;;;;;6.30;2.55;;;;;;;;;;6261559;22;20406;-94
2022/09/01 08:04:10;;;;;;;2.20;2.00;;;;;;;;;;6299358;22;20406;-94
2022/09/01 08:06:37;;;;;;;2.10;2.00;;;;;;;;;;6300455;22;20378;-90
2022/09/01 08:09:09;;;;;;;2.00;1.90;;;;;;;;;;6274271;22;20376;-87
2022/09/01 08:27:53;;;;;;;1.90;1.80;;;;;;;;;;6299265;22;20399;-94
2022/09/01 08:38:40;;;;;;;1.52;1.40;;;;;;;;;;6288387;22;20415;-91
2022/09/01 08:41:27;;;;;;;1.70;1.70;;;;;;;;;;6263010;22;20368;-92
2022/09/01 08:44:00;;;;;;;1.70;1.70;;;;;;;;;;6266497;22;20355;-91
2022/09/01 08:46:33;;;;;;;3.63;1.85;;;;;;;;;;6265892;22;20452;-88
2022/09/01 08:49:07;;;;;;;1.40;1.30;;;;;;;;;;6286499;22;20410;-89
2022/09/01 08:51:46;;;;;;;1.50;1.50;;;;;;;;;;6291964;22;20434;-92
2022/09/01 08:54:15;;;;;;;1.50;1.40;;;;;;;;;;6297986;22;20392;-92
2022/09/01 08:56:42;;;;;;;1.60;1.50;;;;;;;;;;6294860;22;20402;-88
2022/09/01 08:59:11;;;;;;;3.75;1.70;;;;;;;;;;6273099;22;20452;-89
2022/09/01 09:01:40;;;;;;;1.00;1.00;;;;;;;;;;6264484;22;20364;-91
2022/09/01 09:04:09;;;;;;;1.48;1.48;;;;;;;;;;6267626;22;20443;-91
2022/09/01 09:06:40;;;;;;;1.30;1.30;;;;;;;;;;6276998;22;20400;-90
2022/09/01 09:09:08;;;;;;;1.50;1.20;;;;;;;;;;6268341;22;20435;-88
2022/09/01 09:11:53;;;;;;;1.17;1.17;;;;;;;;;;6258058;22;20435;-88
2022/09/01 09:14:39;;;;;;;1.50;1.40;;;;;;;;;;6279781;22;20546;-88
2022/09/01 09:17:07;;;;;;;3.00;1.30;;;;;;;;;;6248795;22;20364;-93
2022/09/01 09:19:38;;;;;;;1.60;1.25;;;;;;;;;;6255624;22;20437;-93
2022/09/01 09:22:05;;;;;;;1.20;1.20;;;;;;;;;;6251926;22;20745;-94
2022/09/01 09:24:57;;;;;;;;;;;;;;;;;;;;;
2022/09/01 09:27:23;;;;;;;1.67;1.57;;;;;;;;;;6279401;22;20450;-89
2022/09/01 09:30:05;;;;;;;1.25;1.15;;;;;;;;;;6261535;22;20348;-94
2022/09/01 09:32:46;;;;;;;1.40;1.30;;;;;;;;;;6258601;22;20372;-92
2022/09/01 09:35:36;;;;;;;1.50;1.40;;;;;;;;;;6266231;22;20356;-91
2022/09/01 09:41:04;;;;;;;1.50;1.40;;;;;;;;;;6298054;22;20353;-94
2022/09/01 09:44:01;;;;;;;1.38;1.27;;;;;;;;;;6273463;22;20360;-93
2022/09/01 09:51:58;;;;;;;2.25;1.42;;;;;;;;;;6256699;22;20464;-89
2022/09/01 09:54:37;;;;;;;2.00;1.90;;;;;;;;;;6270612;22;20431;-91
2022/09/01 09:57:12;;;;;;;1.70;1.60;;;;;;;;;;6285937;22;20399;-93
2022/09/01 09:59:43;;;;;;;1.48;1.48;;;;;;;;;;6258557;22;20363;-92
2022/09/01 10:02:28;;;;;;;1.80;1.50;;;;;;;;;;6285522;22;20415;-90
2022/09/01 10:04:55;;;;;;;1.38;1.38;;;;;;;;;;6263998;22;20365;-92
2022/09/01 10:07:53;;;;;;;2.40;1.67;;;;;;;;;;6267233;22;20367;-94
2022/09/01 10:10:34;;;;;;;1.70;1.70;;;;;;;;;;6270196;22;20447;-88
2022/09/01 10:13:02;;;;;;;1.40;1.30;;;;;;;;;;6268848;22;20393;-93
2022/09/01 10:15:32;;;;;;;1.33;1.33;;;;;;;;;;6260207;22;20364;-94
2022/09/01 10:18:13;;;;;;;1.40;1.40;;;;;;;;;;6257520;22;20352;-92
2022/09/01 10:20:41;;;;;;;1.70;1.60;;;;;;;;;;6286185;22;20352;-90
2022/09/01 10:23:10;;;;;;;1.60;1.50;;;;;;;;;;6261804;22;20352;-89
2022/09/01 10:25:44;;;;;;;2.10;2.00;;;;;;;;;;6265122;22;20372;-87
2022/09/01 10:28:47;;;;;;;2.10;1.90;;;;;;;;;;6263267;22;20371;-92
2022/09/01 10:36:34;;;;;;;1.63;1.58;;;;;;;;;;6247579;22;20390;-93
2022/09/01 10:39:36;;;;;;;1.50;1.50;;;;;;;;;;6234147;22;20369;-90
2022/09/01 10:52:57;;;;;;;3.83;2.30;;;;;;;;;;6283071;22;20399;-93
2022/09/01 10:55:44;;;;;;;1.75;1.65;;;;;;;;;;6306207;22;20381;-91
2022/09/01 10:58:13;;;;;;;1.85;1.75;;;;;;;;;;6312655;22;20402;-89
2022/09/01 11:00:44;;;;;;;1.58;1.58;;;;;;;;;;6283402;22;20356;-92
2022/09/01 11:03:14;;;;;;;2.20;1.80;;;;;;;;;;6314951;22;20413;-92
2022/09/01 11:06:07;;;;;;;3.83;1.90;;;;;;;;;;6294658;22;20359;-95
2022/09/01 11:08:33;;;;;;;2.10;1.50;;;;;;;;;;6295963;22;20346;-92
2022/09/01 11:11:13;;;;;;;2.60;1.75;;;;;;;;;;6296572;22;20412;-89
2022/09/01 11:13:50;;;;;;;2.17;2.07;;;;;;;;;;6299469;22;20232;-91
2022/09/01 11:16:21;;;;;;;;;;;;;;;;;;6326634;22;20261;-94
2022/09/01 11:19:26;;;;;;;1.70;1.67;;;;;;;;;;6327599;22;20627;-92
2022/09/01 11:22:11;;;;;;;1.90;1.80;;;;;;;;;;6294750;22;20370;-91
2022/09/01 11:24:56;;;;;;;2.90;1.73;;;;;;;;;;6285846;22;20358;-92
2022/09/01 11:27:41;;;;;;;2.40;1.70;;;;;;;;;;6285617;22;20358;-88
2022/09/01 11:30:26;;;;;;;1.85;1.75;;;;;;;;;;6292455;22;20361;-95
2022/09/01 11:35:39;;;;;;;2.80;2.60;;;;;;;;;;6242505;22;20392;-87
2022/09/01 11:38:07;;;;;;;2.90;2.20;;;;;;;;;;6261597;22;20419;-90
2022/09/01 11:40:34;;;;;;;2.07;1.87;;;;;;;;;;6257026;22;20412;-93
2022/09/01 11:43:15;;;;;;;1.80;1.70;;;;;;;;;;6255642;22;20356;-91
2022/09/01 11:45:54;;;;;;;2.50;1.60;;;;;;;;;;6257579;22;20387;-92
2022/09/01 11:48:25;;;;;;;2.30;1.90;;;;;;;;;;6260621;22;20349;-91
2022/09/01 11:51:00;;;;;;;1.90;1.80;;;;;;;;;;6257849;22;20353;-88
2022/09/01 11:53:27;;;;;;;2.10;2.10;;;;;;;;;;6283251;22;20380;-92
2022/09/01 11:55:56;;;;;;;3.20;3.00;;;;;;;;;;6275794;22;20336;-93
2022/09/01 11:58:29;;;;;;;1.90;1.80;;;;;;;;;;6250555;22;20352;-93
2022/09/01 12:00:56;;;;;;;1.80;1.70;;;;;;;;;;6243102;22;20744;-93
2022/09/01 12:03:24;;;;;;;1.90;1.80;;;;;;;;;;6252185;22;20674;-90
2022/09/01 12:05:59;;;;;;;3.00;2.90;;;;;;;;;;6278940;22;20348;-92
2022/09/01 12:08:28;;;;;;;2.30;2.20;;;;;;;;;;6252285;22;20856;-91
2022/09/01 12:11:29;;;;;;;;;;;;;;;;;;;;;
2022/09/01 12:17:26;;;;;;;2.20;2.00;;;;;;;;;;6084985;23;20468;-90
2022/09/01 12:23:26;;;;;;;2.00;1.90;;;;;;;;;;6201588;23;20391;-93
2022/09/01 12:25:54;;;;;;;3.00;2.90;;;;;;;;;;6122121;23;20374;-92
2022/09/01 12:29:00;;;;;;;2.00;2.00;;;;;;;;;;6169113;22;20392;-90
2022/09/01 12:31:29;;;;;;;2.30;2.20;;;;;;;;;;6227768;23;20448;-92
2022/09/01 12:34:03;;;;;;;3.10;2.20;;;;;;;;;;6229339;22;22024;-89
2022/09/01 12:39:33;;;;;;;2.50;2.28;;;;;;;;;;6292410;22;20426;-93
2022/09/01 12:42:30;;;;;;;;;;;;;;;;;;;;;
2022/09/01 13:23:36;;;;;;;3.40;2.22;;;;;;;;;;6233462;22;20392;-93
2022/09/01 13:26:21;;;;;;;2.60;2.50;;;;;;;;;;6205255;22;20395;-91
2022/09/01 13:29:16;;;;;;;3.50;2.08;;;;;;;;;;6267890;22;20388;-96
2022/09/01 13:42:36;;;;;;;1.83;1.80;;;;;;;;;;6258945;22;20395;-90
2022/09/01 13:45:20;;;;;;;;;;;;;;;;;;;;;
2022/09/01 13:47:59;;;;;;;3.00;2.20;;;;;;;;;;6298592;22;20371;-91
2022/09/01 13:50:25;;;;;;;2.33;2.33;;;;;;;;;;6295091;22;20351;-90
2022/09/01 13:52:56;;;;;;;1.80;1.80;;;;;;;;;;6292876;22;20382;-93
2022/09/01 13:55:31;;;;;;;2.88;2.58;;;;;;;;;;6289671;22;20370;-92
2022/09/01 13:57:58;;;;;;;1.83;1.83;;;;;;;;;;6311103;22;20335;-90
2022/09/01 14:00:25;;;;;;;2.50;2.40;;;;;;;;;;6312036;22;20502;-92
2022/09/01 14:02:53;;;;;;;1.90;1.90;;;;;;;;;;6281221;22;20354;-90
2022/09/01 14:05:27;;;;;;;2.47;2.30;;;;;;;;;;6282850;22;20377;-88
2022/09/01 14:07:54;;;;;;;1.80;1.70;;;;;;;;;;6310796;22;20350;-91
2022/09/01 14:10:28;;;;;;;4.38;4.07;;;;;;;;;;6291878;22;20693;-91
2022/09/01 14:12:55;;;;;;;1.73;1.73;;;;;;;;;;6289992;22;20378;-90
2022/09/01 14:15:31;;;;;;;2.10;1.90;;;;;;;;;;6229706;22;20436;-92
2022/09/01 14:18:05;;;;;;;3.90;2.80;;;;;;;;;;6232281;23;20358;-89
2022/09/01 14:23:09;;;;;;;5.03;2.40;;;;;;;;;;6275513;22;20434;-89
2022/09/01 14:25:55;;;;;;;2.40;2.30;;;;;;;;;;6270107;22;20386;-92
2022/09/01 14:28:30;;;;;;;2.17;2.03;;;;;;;;;;6265418;22;20352;-89
2022/09/01 14:31:04;;;;;;;1.90;1.90;;;;;;;;;;6262294;22;20360;-88
2022/09/01 14:33:30;;;;;;;3.10;3.00;;;;;;;;;;6268246;22;20388;-90
2022/09/01 14:36:01;;;;;;;1.60;1.60;;;;;;;;;;6296316;22;20391;-89
2022/09/01 14:38:36;;;;;;;1.90;1.80;;;;;;;;;;6253487;22;20435;-89
2022/09/01 14:41:02;;;;;;;2.00;1.90;;;;;;;;;;6268214;22;20423;-90
2022/09/01 14:43:31;;;;;;;2.00;1.90;;;;;;;;;;6267089;22;20375;-88
2022/09/01 14:48:30;;;;;;;2.10;2.00;;;;;;;;;;6266933;22;20394;-90
2022/09/01 14:51:30;;;;;;;2.13;1.92;;;;;;;;;;6214358;22;20374;-92
2022/09/01 14:54:05;;;;;;;2.33;2.33;;;;;;;;;;6299202;22;20414;-90
2022/09/01 14:56:35;;;;;;;2.10;2.00;;;;;;;;;;6302056;22;20409;-90
2022/09/01 14:59:05;;;;;;;2.30;2.17;;;;;;;;;;6300694;22;20398;-88
2022/09/01 15:07:06;;;;;;;2.20;2.10;;;;;;;;;;6265838;23;20392;-89
2022/09/01 15:09:32;;;;;;;2.88;2.70;;;;;;;;;;6296304;22;20375;-88
2022/09/01 15:12:08;;;;;;;2.50;2.30;;;;;;;;;;6294539;22;20394;-90
2022/09/01 15:14:36;;;;;;;3.50;2.30;;;;;;;;;;6292558;22;20387;-90
2022/09/01 15:17:10;;;;;;;3.75;2.22;;;;;;;;;;6294006;22;20348;-90
2022/09/01 15:19:42;;;;;;;1.90;1.80;;;;;;;;;;6294238;22;20380;-91
2022/09/01 15:22:09;;;;;;;3.03;2.88;;;;;;;;;;6294522;22;20529;-89
2022/09/01 15:24:44;;;;;;;2.40;2.30;;;;;;;;;;6293995;22;20440;-92
2022/09/01 15:27:17;;;;;;;2.60;2.40;;;;;;;;;;6286379;22;20383;-94
2022/09/01 15:29:46;;;;;;;2.35;2.15;;;;;;;;;;6295097;22;20375;-92
2022/09/01 15:32:15;;;;;;;1.90;1.80;;;;;;;;;;6253214;22;20393;-91
2022/09/01 15:34:42;;;;;;;2.70;2.60;;;;;;;;;;6266031;22;20368;-93
2022/09/01 15:37:40;;;;;;;2.28;2.08;;;;;;;;;;6289834;22;20498;-93
2022/09/01 15:45:54;;;;;;;2.00;2.00;;;;;;;;;;6306458;22;20391;-92
2022/09/01 15:48:43;;;;;;;2.90;2.70;;;;;;;;;;6305346;22;20352;-92
2022/09/01 15:54:34;;;;;;;;;;;;;;;;;;;;;
2022/09/01 16:00:24;;;;;;;2.15;1.83;;;;;;;;;;6293362;22;20384;-93
2022/09/01 16:03:00;;;;;;;2.65;2.20;;;;;;;;;;6262949;22;20352;-93
2022/09/01 16:05:26;;;;;;;2.00;1.90;;;;;;;;;;6260823;22;20352;-92
2022/09/01 16:07:53;;;;;;;3.95;3.85;;;;;;;;;;6287938;22;20410;-94
2022/09/01 16:10:19;;;;;;;2.20;2.00;;;;;;;;;;6259330;22;20364;-91
2022/09/01 16:12:47;;;;;;;2.90;1.80;;;;;;;;;;6255370;22;20815;-91
2022/09/01 16:15:15;;;;;;;2.38;2.20;;;;;;;;;;6257664;22;20375;-92
2022/09/01 16:18:00;;;;;;;3.53;2.45;;;;;;;;;;6254650;22;20406;-90
2022/09/01 16:20:31;;;;;;;2.58;2.38;;;;;;;;;;6256355;22;20363;-89
2022/09/01 16:23:07;;;;;;;2.58;2.47;;;;;;;;;;6259277;22;20434;-91
2022/09/01 16:25:34;;;;;;;5.60;2.25;;;;;;;;;;6286949;22;20362;-92
2022/09/01 16:33:18;;;;;;;3.65;2.53;;;;;;;;;;6282879;22;20418;-90
2022/09/01 16:36:08;;;;;;;2.40;2.05;;;;;;;;;;6296044;22;20367;-90
2022/09/01 16:38:38;;;;;;;1.60;1.60;;;;;;;;;;6281150;22;20359;-88
2022/09/01 16:41:27;;;;;;;2.65;2.63;;;;;;;;;;6309107;22;20378;-90
2022/09/01 16:46:47;;;;;;;;;;;;;;;;;;;;;
2022/09/01 16:49:48;;;;;;;2.10;2.00;;;;;;;;;;6266174;22;20388;-93
2022/09/01 16:52:28;;;;;;;2.20;2.10;;;;;;;;;;6266383;22;20440;-89
2022/09/01 16:55:14;;;;;;;3.00;2.70;;;;;;;;;;6291691;22;20374;-92
2022/09/01 16:57:50;;;;;;;3.10;2.40;;;;;;;;;;6264410;22;20444;-90
2022/09/01 17:00:35;;;;;;;2.88;2.63;;;;;;;;;;6259679;22;20361;-94
2022/09/01 17:03:06;;;;;;;2.38;1.80;;;;;;;;;;6262113;22;20352;-90
2022/09/01 17:05:38;;;;;;;1.40;1.40;;;;;;;;;;6293879;22;20362;-92
2022/09/01 17:08:46;;;;;;;2.20;2.10;;;;;;;;;;6265278;22;20356;-90
2022/09/01 17:11:21;;;;;;;3.13;2.85;;;;;;;;;;6267394;22;20526;-91
2022/09/01 17:13:51;;;;;;;2.10;1.95;;;;;;;;;;6262228;22;20375;-92
2022/09/01 17:16:21;;;;;;;2.23;2.13;;;;;;;;;;6288444;22;20368;-92
2022/09/01 17:19:03;;;;;;;1.90;1.90;;;;;;;;;;6258304;22;20351;-92
2022/09/01 17:21:51;;;;;;;2.22;1.80;;;;;;;;;;6252943;22;20356;-92
2022/09/01 17:24:41;;;;;;;2.50;2.30;;;;;;;;;;6290395;22;20375;-94
2022/09/01 17:27:23;;;;;;;2.47;2.47;;;;;;;;;;6253533;22;20377;-92
2022/09/01 17:29:52;;;;;;;2.20;2.00;;;;;;;;;;6233118;22;20384;-93
2022/09/01 17:32:28;;;;;;;2.53;2.30;;;;;;;;;;6265464;22;20762;-91
2022/09/01 17:35:17;;;;;;;2.53;2.10;;;;;;;;;;6302249;22;20334;-91
2022/09/01 17:37:44;;;;;;;2.22;2.20;;;;;;;;;;6298143;22;20355;-90
2022/09/01 17:40:19;;;;;;;2.85;2.45;;;;;;;;;;6270626;22;20390;-92
2022/09/01 17:51:14;;;;;;;2.50;1.80;;;;;;;;;;6290756;22;20379;-90
2022/09/01 17:54:04;;;;;;;2.80;2.60;;;;;;;;;;6231510;22;20387;-92
2022/09/01 17:56:42;;;;;;;1.90;1.80;;;;;;;;;;6292985;22;20340;-91
2022/09/01 17:59:17;;;;;;;3.30;2.35;;;;;;;;;;6268019;22;20351;-91
2022/09/01 18:01:46;;;;;;;2.20;2.10;;;;;;;;;;6264106;22;20364;-92
2022/09/01 18:07:17;;;;;;;3.50;2.00;;;;;;;;;;6292227;22;20471;-93
2022/09/01 18:09:53;;;;;;;2.80;2.60;;;;;;;;;;6298841;22;20375;-92
2022/09/01 18:12:27;;;;;;;1.90;1.90;;;;;;;;;;6267630;22;20375;-90
2022/09/01 18:15:19;;;;;;;2.95;2.38;;;;;;;;;;6293781;22;20344;-91
2022/09/01 18:20:32;;;;;;;2.42;2.22;;;;;;;;;;6265500;22;20462;-93
2022/09/01 18:23:03;;;;;;;2.58;2.47;;;;;;;;;;6233515;23;20427;-91
2022/09/01 18:25:53;;;;;;;2.67;1.98;;;;;;;;;;6239150;23;20362;-93
2022/09/01 18:28:36;;;;;;;3.67;3.38;;;;;;;;;;6235634;23;20346;-93
2022/09/01 18:31:11;;;;;;;2.80;2.20;;;;;;;;;;6234341;23;20686;-93
2022/09/01 18:33:56;;;;;;;3.70;3.20;;;;;;;;;;6228087;23;20410;-92
2022/09/01 18:36:30;;;;;;;3.13;2.17;;;;;;;;;;6255866;22;20457;-91
2022/09/01 18:39:10;;;;;;;2.80;2.60;;;;;;;;;;6250136;22;20463;-91
2022/09/01 18:41:45;;;;;;;2.20;2.00;;;;;;;;;;6249777;22;20383;-90
2022/09/01 18:44:30;;;;;;;2.70;2.50;;;;;;;;;;6248444;22;20398;-91
2022/09/01 18:47:03;;;;;;;2.90;2.30;;;;;;;;;;6251866;22;20386;-91
2022/09/01 18:49:57;;;;;;;2.58;2.45;;;;;;;;;;6230024;23;20441;-93
2022/09/01 18:52:38;;;;;;;1.92;1.92;;;;;;;;;;6230269;23;20940;-93
2022/09/01 18:55:23;;;;;;;3.00;2.90;;;;;;;;;;6224144;23;20370;-91
2022/09/01 18:57:54;;;;;;;3.80;2.30;;;;;;;;;;6224607;23;20365;-92
2022/09/01 19:00:44;;;;;;;2.50;2.30;;;;;;;;;;6255774;23;20807;-92
2022/09/01 19:03:18;;;;;;;2.72;2.50;;;;;;;;;;6200721;23;20523;-92
2022/09/01 19:05:54;;;;;;;2.70;2.60;;;;;;;;;;6236052;23;20448;-94